Nearby METAR Reports

 

YSRI - Richmond (aus-Af, Australia
Distance from station: WSW 35km
Updated: 27/09/2022 11:30
Overcast
Overcast
 Wind from SSE
Wind: SSE 2 km/h
Temperature: 19°C
Dew Point: 16°C
Humidity: 83%
Barometer: 1013 hPa
Clouds: Overcast
Visibility: 10 km
Cloud details: Overcast 2560 m
2022/09/27 01:30 YSRI 270130Z AUTO 15001KT 9999 // OVC084 19/16 Q1013 RF00.0/000.0
YSSY - Sydney Intl Airp, Australia
Distance from station: S 47km
Updated: 27/09/2022 11:30
Mostly cloudy
Mostly cloudy
 Wind from S
Wind: S 9 km/h
Temperature: 19°C
Dew Point: 14°C
Humidity: 73%
Barometer: 1013 hPa
Clouds: Mostly cloudy
Visibility: 10 km
Cloud details: Few Clouds 1219 m
Mostly cloudy 2438 m
Mostly cloudy 3048 m
2022/09/27 01:30 YSSY 270130Z 17005KT 140V200 9999 FEW040 BKN080 BKN100 19/14 Q1013
 
YWLM - Williamtown Arp, Australia
Distance from station: NE 104km
Updated: 27/09/2022 11:30
Clear
Clear
 Wind from NW
Wind: NW 13 km/h
Temperature: 18°C
Dew Point: 12°C
Humidity: 68%
Barometer: 1014 hPa
Summary: Clear
Visibility: greater than 10 km
2022/09/27 01:30 YWLM 270130Z 32007KT CAVOK 18/12 Q1014
YSNW - Nowra (aus-Navy), Australia
Distance from station: SSW 168km
Updated: 24/09/2022 17:19
NOT Current
Light rain, Showers, Mostly cloudy
Light rain, Showers, Mostly cloudy
 Wind from W
Wind: W 4 km/h
Temperature: 14°C
Dew Point: 13°C
Humidity: 94%
Barometer: 1011 hPa
Summary: Light rain, Showers
Clouds: Mostly cloudy
Visibility: 9 km
Cloud details: Partly cloudy 1128 m
Mostly cloudy 1402 m
Mostly cloudy 1829 m
2022/09/24 07:19 YSNW 240719Z AUTO 26002KT 9000 -SHRA SCT037 BKN046 BKN060 14/13 Q1011
 
YMDG - Mudgee Arpt, Australia
Distance from station: NW 177km
Updated: 26/09/2022 14:30
NOT Current
Haze, Partly cloudy
Haze, Partly cloudy
 Wind from WNW
Wind: WNW 7 km/h
Temperature: 17°C
Dew Point: 6°C
Humidity: 49%
Barometer: 1015 hPa
Summary: Haze
Clouds: Partly cloudy
Visibility: 3 km
Cloud details: Partly cloudy 3658 m
2022/09/26 04:30 YMDG 260430Z AUTO 30004KT 250V330 2800 HZ SCT120 17/06 Q1015
YTRE - Taree Airport, Australia
Distance from station: NE 224km
Updated: 27/09/2022 03:24
NOT Current
Clear
Clear
 Wind from calm
Wind: Calm
Temperature: 11°C
Dew Point: 11°C
Humidity: 100%
Barometer: 1013 hPa
Clouds: Clear
Visibility: 10 km
2022/09/26 17:24 YTRE 261724Z AUTO 00000KT 9999 // NCD 11/11 Q1013
 
YSCB - Canberra (civ/Mi, Australia
Distance from station: SW 265km
Updated: 27/09/2022 11:30
Overcast
Overcast
 Wind from N
Wind: N 15 km/h
Temperature: 13°C
Dew Point: 12°C
Humidity: 94%
Barometer: 1013 hPa
Clouds: Overcast
Visibility: 10 km
Cloud details: Mostly cloudy 335 m
Overcast 488 m
Overcast 1402 m
2022/09/27 01:30 YSCB 270130Z AUTO 35008KT 9999 // BKN011 OVC016 OVC046 13/12 Q1013
YSTW - Tamworth Airport, Australia
Distance from station: N 275km
Updated: 27/09/2022 11:30
Clear
Clear
 Wind from W
Wind: W 9 km/h
Temperature: 22°C
Dew Point: 1°C
Humidity: 25%
Barometer: 1014 hPa
Clouds: Clear
Visibility: 10 km
2022/09/27 01:30 YSTW 270130Z AUTO 27005KT 9999 // NCD 22/01 Q1014 RF00.0/000.0
 
YSDU - Dubbo, Australia
Distance from station: WNW 280km
Updated: 27/09/2022 11:30
Clear
Clear
 Wind from NNW
Wind: NNW 19 km/h
Temperature: 21°C
Dew Point: 12°C
Humidity: 57%
Barometer: 1013 hPa
Clouds: Clear
Visibility: 10 km
2022/09/27 01:30 YSDU 270130Z AUTO 33010KT 9999 // NCD 21/12 Q1013 RF00.0/000.0
YPMQ - Port Macquarie, Australia
Distance from station: NE 284km
Updated: 27/09/2022 02:52
NOT Current
Clear
Clear
 Wind from WNW
Wind: WNW 4 km/h
Temperature: 14°C
Dew Point: 13°C
Humidity: 94%
Barometer: 1013 hPa
Clouds: Clear
Visibility: 10 km
2022/09/26 16:52 YPMQ 261652Z AUTO 30002KT 9999 // NCD 14/13 Q1013
 
YCBB - Coonabarabran, Australia
Distance from station: NW 300km
Updated: 24/09/2022 09:55
NOT Current
Partly cloudy
Partly cloudy
 Wind from SW
Wind: SW 15 km/h
Temperature: 17°C
Dew Point: 12°C
Humidity: 73%
Barometer: 1014 hPa
Clouds: Partly cloudy
Visibility: 10 km
Cloud details: Partly cloudy 488 m
Partly cloudy 701 m
2022/09/23 23:55 YCBB 232355Z AUTO 23008KT 9999 // SCT016 SCT023 17/12 Q1014